Time;durP1;ratioP1;P1;durP2;ratioP2;P2;SDS_P1;SDS_P2;PMS_P1;PMS_P2;Temp;Humidity;BMP_temperature;BMP_pressure;BME280_temperature;BME280_humidity;BME280_pressure;Samples;Min_cycle;Max_cycle;Signal;HPM_P1;HPM_P2
2021/07/20 00:00:10;;;;;;;16.23;6.20;;;;;;;;;;5052297;28;20021;-73
2021/07/20 00:02:40;;;;;;;11.90;6.00;;;;;;;;;;5050695;28;20583;-72
2021/07/20 00:05:08;;;;;;;19.13;6.28;;;;;;;;;;5050717;28;20435;-72
2021/07/20 00:07:34;;;;;;;12.27;6.22;;;;;;;;;;5050401;28;20060;-72
2021/07/20 00:10:00;;;;;;;11.90;5.70;;;;;;;;;;5052061;28;20021;-72
2021/07/20 00:12:26;;;;;;;14.82;6.65;;;;;;;;;;5050636;28;20094;-73
2021/07/20 00:14:52;;;;;;;11.93;6.15;;;;;;;;;;5050395;28;20116;-72
2021/07/20 00:17:21;;;;;;;13.30;7.25;;;;;;;;;;5051854;28;20384;-72
2021/07/20 00:19:47;;;;;;;15.52;5.82;;;;;;;;;;5050127;28;20132;-72
2021/07/20 00:22:13;;;;;;;11.30;6.20;;;;;;;;;;5051865;28;20039;-72
2021/07/20 00:24:38;;;;;;;14.00;6.43;;;;;;;;;;5050330;28;20107;-72
2021/07/20 00:27:04;;;;;;;15.68;6.13;;;;;;;;;;5050361;28;20472;-72
2021/07/20 00:29:30;;;;;;;11.20;6.88;;;;;;;;;;5050010;28;20056;-74
2021/07/20 00:31:55;;;;;;;16.13;6.38;;;;;;;;;;5050368;28;20025;-74
2021/07/20 00:34:21;;;;;;;11.73;5.97;;;;;;;;;;5051658;28;20063;-72
2021/07/20 00:36:46;;;;;;;13.13;6.78;;;;;;;;;;5049874;28;20067;-72
2021/07/20 00:39:12;;;;;;;17.40;7.45;;;;;;;;;;5051426;28;20048;-72
2021/07/20 00:41:37;;;;;;;14.80;5.97;;;;;;;;;;5049797;28;20511;-72
2021/07/20 00:44:03;;;;;;;13.90;6.13;;;;;;;;;;5049988;28;20025;-72
2021/07/20 00:46:28;;;;;;;14.85;6.40;;;;;;;;;;5049643;28;20078;-72
2021/07/20 00:48:54;;;;;;;19.73;7.28;;;;;;;;;;5051043;28;20144;-72
2021/07/20 00:51:19;;;;;;;15.52;6.45;;;;;;;;;;5049872;28;20047;-72
2021/07/20 00:53:46;;;;;;;13.15;6.55;;;;;;;;;;5049798;28;20436;-72
2021/07/20 00:56:12;;;;;;;11.13;5.82;;;;;;;;;;5049864;28;20044;-72
2021/07/20 00:58:38;;;;;;;15.50;6.35;;;;;;;;;;5049804;28;20025;-73
2021/07/20 01:01:03;;;;;;;14.55;6.53;;;;;;;;;;5050044;28;20024;-72
2021/07/20 01:03:31;;;;;;;21.13;6.93;;;;;;;;;;5049506;28;20025;-73
2021/07/20 01:05:56;;;;;;;10.95;6.13;;;;;;;;;;5049952;28;20085;-73
2021/07/20 01:08:23;;;;;;;15.23;6.70;;;;;;;;;;5049500;28;20112;-74
2021/07/20 01:10:51;;;;;;;14.77;6.47;;;;;;;;;;5049225;28;20384;-75
2021/07/20 01:13:18;;;;;;;17.20;6.90;;;;;;;;;;5049664;28;20021;-75
2021/07/20 01:15:44;;;;;;;17.98;7.45;;;;;;;;;;5049503;28;20043;-75
2021/07/20 01:18:10;;;;;;;22.58;8.93;;;;;;;;;;5049532;28;20032;-74
2021/07/20 01:20:35;;;;;;;23.45;7.93;;;;;;;;;;5050674;28;20025;-74
2021/07/20 01:23:35;;;;;;;15.25;6.72;;;;;;;;;;5050810;28;20025;-74
2021/07/20 01:26:01;;;;;;;19.77;7.95;;;;;;;;;;5049277;28;20102;-75
2021/07/20 01:28:28;;;;;;;12.73;6.68;;;;;;;;;;5050553;28;20075;-74
2021/07/20 01:31:01;;;;;;;19.08;6.90;;;;;;;;;;5049376;28;20027;-74
2021/07/20 01:33:29;;;;;;;15.07;7.10;;;;;;;;;;5050559;28;20365;-74
2021/07/20 01:35:55;;;;;;;11.55;6.55;;;;;;;;;;5049048;28;20067;-75
2021/07/20 01:38:22;;;;;;;15.27;7.10;;;;;;;;;;5049112;28;20035;-74
2021/07/20 01:40:49;;;;;;;15.73;7.72;;;;;;;;;;5048860;28;20040;-75
2021/07/20 01:43:20;;;;;;;18.40;7.53;;;;;;;;;;5049096;28;20099;-73
2021/07/20 01:45:46;;;;;;;14.13;7.68;;;;;;;;;;5048957;28;20025;-73
2021/07/20 01:48:12;;;;;;;12.00;6.82;;;;;;;;;;5050315;28;20029;-74
2021/07/20 01:50:38;;;;;;;19.27;8.50;;;;;;;;;;5049998;28;20025;-74
2021/07/20 01:53:05;;;;;;;14.35;7.38;;;;;;;;;;5048780;28;20025;-74
2021/07/20 01:55:32;;;;;;;19.63;8.70;;;;;;;;;;5049483;28;20072;-74
2021/07/20 01:57:58;;;;;;;15.80;7.72;;;;;;;;;;5048663;28;20021;-74
2021/07/20 02:00:24;;;;;;;14.55;6.93;;;;;;;;;;5048005;28;20036;-75
2021/07/20 02:08:41;;;;;;;13.85;7.05;;;;;;;;;;5050366;28;20459;-75
2021/07/20 02:11:12;;;;;;;15.63;7.22;;;;;;;;;;5049872;28;20388;-75
2021/07/20 02:13:50;;;;;;;12.18;6.55;;;;;;;;;;5049694;28;20380;-75
2021/07/20 02:16:17;;;;;;;10.88;6.75;;;;;;;;;;5048297;28;20435;-75
2021/07/20 02:18:49;;;;;;;19.02;6.93;;;;;;;;;;5049518;28;20484;-75
2021/07/20 02:21:17;;;;;;;14.68;7.30;;;;;;;;;;5048294;28;20025;-75
2021/07/20 02:23:44;;;;;;;11.68;6.57;;;;;;;;;;5048099;28;20033;-72
2021/07/20 02:26:10;;;;;;;14.38;7.32;;;;;;;;;;5048334;28;20527;-73
2021/07/20 02:28:37;;;;;;;11.05;6.35;;;;;;;;;;5049602;28;20025;-73
2021/07/20 02:31:04;;;;;;;14.77;6.32;;;;;;;;;;5049509;28;20428;-73
2021/07/20 02:33:30;;;;;;;13.85;7.55;;;;;;;;;;5048255;28;20075;-73
2021/07/20 02:35:57;;;;;;;18.50;7.68;;;;;;;;;;5047887;28;20041;-73
2021/07/20 02:38:24;;;;;;;16.30;6.80;;;;;;;;;;5048136;28;20024;-73
2021/07/20 02:40:50;;;;;;;15.32;6.85;;;;;;;;;;5049058;28;20036;-73
2021/07/20 02:43:19;;;;;;;17.98;6.65;;;;;;;;;;5047884;28;20033;-73
2021/07/20 02:45:45;;;;;;;13.48;6.30;;;;;;;;;;5049029;28;20494;-73
2021/07/20 02:48:12;;;;;;;13.98;6.45;;;;;;;;;;5031289;28;20035;-73
2021/07/20 02:50:38;;;;;;;17.02;6.78;;;;;;;;;;5047797;28;20025;-72
2021/07/20 02:53:05;;;;;;;11.68;6.47;;;;;;;;;;5048106;28;20025;-72
2021/07/20 02:55:31;;;;;;;12.82;6.03;;;;;;;;;;5047536;28;20069;-72
2021/07/20 02:58:00;;;;;;;11.18;6.13;;;;;;;;;;5049244;28;20429;-72
2021/07/20 03:00:26;;;;;;;11.63;7.07;;;;;;;;;;5049241;28;20029;-71
2021/07/20 03:02:53;;;;;;;15.00;6.80;;;;;;;;;;5047775;28;20059;-72
2021/07/20 03:05:18;;;;;;;17.00;7.13;;;;;;;;;;5047853;28;20017;-71
2021/07/20 03:07:52;;;;;;;15.90;7.25;;;;;;;;;;5048811;28;20077;-72
2021/07/20 03:10:20;;;;;;;18.20;7.07;;;;;;;;;;5049018;28;20052;-73
2021/07/20 03:12:47;;;;;;;17.48;7.22;;;;;;;;;;5050530;28;20115;-72
2021/07/20 03:15:14;;;;;;;15.05;6.63;;;;;;;;;;5053320;28;20029;-72
2021/07/20 03:17:40;;;;;;;18.50;6.72;;;;;;;;;;5052857;28;20025;-72
2021/07/20 03:20:07;;;;;;;19.20;6.82;;;;;;;;;;5051830;28;20029;-72
2021/07/20 03:22:35;;;;;;;12.75;6.50;;;;;;;;;;5051673;28;20482;-72
2021/07/20 03:25:03;;;;;;;14.00;6.72;;;;;;;;;;5053187;28;20047;-72
2021/07/20 03:27:31;;;;;;;16.30;7.35;;;;;;;;;;5051465;28;20071;-72
2021/07/20 03:30:00;;;;;;;20.35;7.35;;;;;;;;;;5052593;28;20025;-72
2021/07/20 03:32:26;;;;;;;17.35;7.05;;;;;;;;;;5052798;28;20037;-73
2021/07/20 03:34:52;;;;;;;15.60;7.05;;;;;;;;;;5052571;28;20024;-73
2021/07/20 03:37:20;;;;;;;12.68;6.72;;;;;;;;;;5051380;28;20032;-72
2021/07/20 03:39:46;;;;;;;14.40;6.80;;;;;;;;;;5052355;28;20033;-72
2021/07/20 03:42:12;;;;;;;18.23;7.55;;;;;;;;;;5052474;28;20029;-72
2021/07/20 03:44:39;;;;;;;15.60;6.70;;;;;;;;;;5051000;28;20384;-72
2021/07/20 03:47:06;;;;;;;12.48;6.38;;;;;;;;;;5051245;28;20021;-72
2021/07/20 03:49:34;;;;;;;15.70;7.07;;;;;;;;;;5034403;28;20499;-73
2021/07/20 03:52:01;;;;;;;11.80;6.95;;;;;;;;;;5052066;28;20027;-73
2021/07/20 03:54:29;;;;;;;19.98;7.50;;;;;;;;;;5050666;28;20115;-72
2021/07/20 03:56:56;;;;;;;16.55;9.50;;;;;;;;;;5052003;28;20503;-74
2021/07/20 03:59:24;;;;;;;22.33;7.82;;;;;;;;;;5052560;28;20098;-72
2021/07/20 04:01:52;;;;;;;16.98;7.53;;;;;;;;;;5050458;28;20464;-72
2021/07/20 04:04:19;;;;;;;22.90;7.30;;;;;;;;;;5050668;28;20083;-72
2021/07/20 04:06:46;;;;;;;30.90;8.30;;;;;;;;;;5051869;28;20055;-72
2021/07/20 04:09:13;;;;;;;14.23;6.72;;;;;;;;;;5050761;28;20056;-72
2021/07/20 04:11:39;;;;;;;22.50;8.90;;;;;;;;;;5051859;28;20075;-73
2021/07/20 04:14:06;;;;;;;14.52;6.63;;;;;;;;;;5050795;28;20033;-72
2021/07/20 04:16:34;;;;;;;16.60;6.90;;;;;;;;;;5052151;28;20028;-72
2021/07/20 04:19:00;;;;;;;13.75;6.43;;;;;;;;;;5051717;28;20028;-72
2021/07/20 04:21:26;;;;;;;16.35;7.68;;;;;;;;;;5051922;28;20453;-72
2021/07/20 04:23:52;;;;;;;17.38;6.32;;;;;;;;;;5051034;28;20452;-72
2021/07/20 04:26:19;;;;;;;17.60;7.07;;;;;;;;;;5050279;28;20029;-72
2021/07/20 04:28:45;;;;;;;18.85;7.38;;;;;;;;;;5051595;28;20029;-73
2021/07/20 04:31:12;;;;;;;20.48;8.00;;;;;;;;;;5051878;28;20032;-73
2021/07/20 04:33:38;;;;;;;11.48;7.07;;;;;;;;;;5050413;28;20028;-73
2021/07/20 04:36:04;;;;;;;17.30;6.72;;;;;;;;;;5051532;28;20028;-73
2021/07/20 04:38:32;;;;;;;13.57;6.78;;;;;;;;;;5050314;28;20032;-72
2021/07/20 04:40:59;;;;;;;15.00;7.63;;;;;;;;;;5033504;28;20033;-73
2021/07/20 04:43:26;;;;;;;16.52;8.45;;;;;;;;;;5050080;28;20388;-73
2021/07/20 04:45:56;;;;;;;24.73;7.75;;;;;;;;;;5050013;28;20049;-72
2021/07/20 04:48:22;;;;;;;15.57;7.50;;;;;;;;;;5051189;28;20372;-72
2021/07/20 04:50:49;;;;;;;16.65;7.05;;;;;;;;;;5049494;28;20060;-72
2021/07/20 04:53:16;;;;;;;16.38;7.53;;;;;;;;;;5049692;28;20064;-71
2021/07/20 04:55:44;;;;;;;14.45;7.95;;;;;;;;;;5050407;28;20135;-72
2021/07/20 04:58:09;;;;;;;16.02;6.60;;;;;;;;;;5049705;28;20033;-73
2021/07/20 05:00:36;;;;;;;11.10;6.10;;;;;;;;;;5049600;28;20024;-73
2021/07/20 05:03:04;;;;;;;18.27;9.07;;;;;;;;;;5049234;28;20029;-72
2021/07/20 05:05:32;;;;;;;18.33;7.95;;;;;;;;;;5050855;28;20029;-73
2021/07/20 05:08:00;;;;;;;14.52;7.60;;;;;;;;;;5049493;28;20400;-72
2021/07/20 05:10:25;;;;;;;19.23;13.98;;;;;;;;;;5049446;28;20078;-72
2021/07/20 05:12:51;;;;;;;20.83;9.15;;;;;;;;;;5047355;28;20435;-72
2021/07/20 05:15:20;;;;;;;15.35;6.55;;;;;;;;;;5039480;28;20140;-69
2021/07/20 05:17:47;;;;;;;18.25;7.97;;;;;;;;;;5035375;28;20079;-73
2021/07/20 05:20:15;;;;;;;16.10;7.28;;;;;;;;;;5049673;28;20063;-72
2021/07/20 05:22:42;;;;;;;14.48;6.63;;;;;;;;;;5031574;28;20068;-73
2021/07/20 05:25:10;;;;;;;22.83;11.50;;;;;;;;;;5031546;28;20565;-74
2021/07/20 05:27:49;;;;;;;12.65;6.80;;;;;;;;;;5042333;28;20060;-73
2021/07/20 05:30:16;;;;;;;14.27;7.15;;;;;;;;;;5043139;28;20033;-73
2021/07/20 05:32:45;;;;;;;18.90;7.20;;;;;;;;;;5043256;28;20025;-74
2021/07/20 05:35:16;;;;;;;16.58;6.95;;;;;;;;;;5044939;28;20130;-74
2021/07/20 05:37:42;;;;;;;21.85;9.32;;;;;;;;;;5041466;28;21783;-74
2021/07/20 05:40:15;;;;;;;20.60;8.02;;;;;;;;;;5049431;28;20025;-74
2021/07/20 05:42:42;;;;;;;14.93;6.45;;;;;;;;;;5033455;28;20095;-74
2021/07/20 05:45:10;;;;;;;12.63;7.25;;;;;;;;;;5032907;28;20136;-74
2021/07/20 05:47:40;;;;;;;15.00;7.38;;;;;;;;;;5044920;28;20037;-74
2021/07/20 05:50:07;;;;;;;11.32;7.53;;;;;;;;;;5040651;28;20361;-73
2021/07/20 05:52:39;;;;;;;12.32;6.35;;;;;;;;;;5030264;28;20057;-74
2021/07/20 05:55:07;;;;;;;13.43;6.90;;;;;;;;;;5038465;28;20051;-75
2021/07/20 05:57:38;;;;;;;17.10;7.88;;;;;;;;;;5049208;28;20040;-73
2021/07/20 06:00:09;;;;;;;18.00;8.02;;;;;;;;;;5051466;28;20021;-73
2021/07/20 06:02:36;;;;;;;16.20;6.93;;;;;;;;;;5048889;28;20049;-74
2021/07/20 06:05:03;;;;;;;14.70;8.07;;;;;;;;;;5050348;28;20028;-74
2021/07/20 06:07:32;;;;;;;12.90;7.70;;;;;;;;;;5048759;28;20439;-73
2021/07/20 06:09:59;;;;;;;15.85;7.50;;;;;;;;;;5048300;28;20025;-73
2021/07/20 06:12:27;;;;;;;12.95;7.28;;;;;;;;;;5020680;28;20033;-73
2021/07/20 06:14:54;;;;;;;17.83;7.20;;;;;;;;;;5036052;28;20432;-74
2021/07/20 06:17:23;;;;;;;16.80;8.50;;;;;;;;;;5035581;28;20563;-73
2021/07/20 06:19:49;;;;;;;12.93;7.55;;;;;;;;;;5037945;28;20040;-75
2021/07/20 06:22:15;;;;;;;18.98;8.70;;;;;;;;;;5040859;28;20666;-74
2021/07/20 06:24:45;;;;;;;13.38;8.25;;;;;;;;;;5004441;28;20149;-74
2021/07/20 06:27:13;;;;;;;13.90;6.80;;;;;;;;;;5020540;28;20036;-75
2021/07/20 06:29:42;;;;;;;14.20;7.40;;;;;;;;;;5023111;28;20091;-74
2021/07/20 06:32:09;;;;;;;22.00;6.55;;;;;;;;;;5035766;28;20048;-74
2021/07/20 06:34:36;;;;;;;15.70;7.38;;;;;;;;;;5011546;28;20030;-73
2021/07/20 06:37:02;;;;;;;12.60;7.18;;;;;;;;;;5023477;28;20179;-73
2021/07/20 06:39:28;;;;;;;18.25;8.07;;;;;;;;;;5023266;28;20535;-74
2021/07/20 06:41:56;;;;;;;16.05;7.82;;;;;;;;;;5030406;28;20053;-75
2021/07/20 06:44:22;;;;;;;12.00;6.80;;;;;;;;;;5027679;28;20033;-73
2021/07/20 06:46:49;;;;;;;16.38;8.05;;;;;;;;;;5018299;28;20096;-73
2021/07/20 06:49:18;;;;;;;17.42;8.13;;;;;;;;;;5039126;28;20029;-73
2021/07/20 06:51:43;;;;;;;16.52;7.28;;;;;;;;;;5028673;28;20061;-74
2021/07/20 06:54:10;;;;;;;18.50;6.90;;;;;;;;;;5016381;28;20056;-74
2021/07/20 06:56:40;;;;;;;14.13;6.68;;;;;;;;;;5029046;28;20092;-73
2021/07/20 06:59:08;;;;;;;22.50;7.53;;;;;;;;;;5019392;28;20060;-73
2021/07/20 07:01:36;;;;;;;16.27;6.57;;;;;;;;;;5032803;28;20279;-74
2021/07/20 07:04:11;;;;;;;18.90;8.07;;;;;;;;;;5015359;28;20037;-75
2021/07/20 07:06:41;;;;;;;17.60;7.68;;;;;;;;;;5018275;28;20034;-73
2021/07/20 07:09:08;;;;;;;37.40;14.52;;;;;;;;;;5021250;28;20459;-73
2021/07/20 07:11:35;;;;;;;15.73;7.15;;;;;;;;;;5020638;28;20037;-73
2021/07/20 07:14:02;;;;;;;16.70;6.85;;;;;;;;;;5031756;28;20362;-75
2021/07/20 07:16:28;;;;;;;13.85;7.07;;;;;;;;;;5014205;28;20037;-72
2021/07/20 07:18:56;;;;;;;11.70;6.82;;;;;;;;;;5036955;28;20033;-74
2021/07/20 07:21:23;;;;;;;16.35;7.45;;;;;;;;;;5016404;28;20034;-74
2021/07/20 07:23:52;;;;;;;16.30;7.32;;;;;;;;;;5019539;28;20041;-73
2021/07/20 07:26:19;;;;;;;14.68;6.35;;;;;;;;;;5034473;28;20029;-74
2021/07/20 07:28:48;;;;;;;20.17;6.80;;;;;;;;;;5025052;28;20470;-74
2021/07/20 07:31:15;;;;;;;19.40;7.75;;;;;;;;;;5027257;28;20044;-73
2021/07/20 07:33:41;;;;;;;13.90;6.60;;;;;;;;;;5018076;28;20025;-73
2021/07/20 07:36:09;;;;;;;11.00;5.55;;;;;;;;;;5019358;28;20029;-72
2021/07/20 07:38:39;;;;;;;12.32;6.60;;;;;;;;;;5016096;28;20039;-73
2021/07/20 07:41:05;;;;;;;20.88;9.77;;;;;;;;;;5014833;28;20021;-73
2021/07/20 07:43:33;;;;;;;14.40;6.72;;;;;;;;;;5014651;28;20062;-74
2021/07/20 07:46:01;;;;;;;13.05;6.45;;;;;;;;;;5021202;28;20033;-73
2021/07/20 07:48:28;;;;;;;24.73;7.55;;;;;;;;;;5013329;28;20039;-73
2021/07/20 07:50:58;;;;;;;11.85;6.35;;;;;;;;;;5032876;28;20114;-73
2021/07/20 07:53:24;;;;;;;16.33;6.57;;;;;;;;;;5020266;28;20057;-72
2021/07/20 07:55:51;;;;;;;14.77;7.28;;;;;;;;;;5020811;28;20107;-72
2021/07/20 07:58:17;;;;;;;16.40;6.57;;;;;;;;;;5032112;28;20033;-73
2021/07/20 08:00:46;;;;;;;14.13;6.95;;;;;;;;;;5022687;28;20036;-73
2021/07/20 08:03:16;;;;;;;16.83;7.28;;;;;;;;;;5025740;28;20485;-74
2021/07/20 08:05:46;;;;;;;21.65;9.13;;;;;;;;;;5023536;28;20193;-74
2021/07/20 08:08:12;;;;;;;13.43;6.22;;;;;;;;;;5041115;28;20444;-73
2021/07/20 08:10:42;;;;;;;12.00;6.53;;;;;;;;;;5021730;28;20021;-73
2021/07/20 08:13:09;;;;;;;12.93;6.28;;;;;;;;;;5017375;28;20033;-74
2021/07/20 08:15:35;;;;;;;20.60;6.47;;;;;;;;;;5040694;28;20051;-72
2021/07/20 08:18:02;;;;;;;14.52;6.60;;;;;;;;;;5041888;28;20559;-73
2021/07/20 08:20:28;;;;;;;9.93;6.82;;;;;;;;;;5027467;28;20033;-72
2021/07/20 08:22:53;;;;;;;10.10;5.80;;;;;;;;;;5017305;28;20559;-73
2021/07/20 08:25:30;;;;;;;12.60;5.60;;;;;;;;;;5019472;28;20096;-74
2021/07/20 08:27:59;;;;;;;15.20;7.85;;;;;;;;;;5026375;28;20579;-74
2021/07/20 08:30:25;;;;;;;15.65;6.70;;;;;;;;;;5020291;28;20037;-72
2021/07/20 08:32:56;;;;;;;9.98;6.30;;;;;;;;;;5018541;28;20036;-73
2021/07/20 08:35:26;;;;;;;16.15;6.85;;;;;;;;;;5015988;28;20100;-73
2021/07/20 08:37:57;;;;;;;13.57;7.53;;;;;;;;;;5021351;28;20030;-73
2021/07/20 08:40:32;;;;;;;10.00;6.05;;;;;;;;;;5021009;28;20164;-73
2021/07/20 08:43:22;;;;;;;16.33;6.05;;;;;;;;;;5018928;28;20049;-73
2021/07/20 08:46:09;;;;;;;11.07;6.18;;;;;;;;;;5021742;28;20021;-72
2021/07/20 08:49:01;;;;;;;13.35;6.47;;;;;;;;;;5016208;28;20461;-74
2021/07/20 08:51:46;;;;;;;8.38;5.53;;;;;;;;;;5019390;28;20071;-72
2021/07/20 08:54:15;;;;;;;13.45;7.30;;;;;;;;;;5020881;28;20033;-71
2021/07/20 08:56:43;;;;;;;10.82;6.28;;;;;;;;;;5024162;28;20121;-73
2021/07/20 08:59:17;;;;;;;10.82;6.10;;;;;;;;;;5019310;28;20045;-73
2021/07/20 09:02:07;;;;;;;8.52;5.75;;;;;;;;;;5016552;28;20030;-73
2021/07/20 09:04:40;;;;;;;20.35;6.03;;;;;;;;;;5014994;28;20029;-73
2021/07/20 09:07:16;;;;;;;14.10;6.00;;;;;;;;;;4995290;28;20029;-74
2021/07/20 09:09:48;;;;;;;11.43;5.90;;;;;;;;;;5024622;28;20034;-74
2021/07/20 09:12:27;;;;;;;12.85;5.85;;;;;;;;;;5018185;28;20034;-74
2021/07/20 09:15:00;;;;;;;9.00;6.03;;;;;;;;;;5021170;28;20044;-74
2021/07/20 09:17:30;;;;;;;12.23;6.43;;;;;;;;;;5019491;28;20079;-73
2021/07/20 09:20:03;;;;;;;14.68;6.07;;;;;;;;;;5016638;28;20026;-73
2021/07/20 09:22:48;;;;;;;16.48;5.72;;;;;;;;;;5022942;28;20029;-77
2021/07/20 09:25:52;;;;;;;10.48;6.65;;;;;;;;;;5024582;28;20342;-73
2021/07/20 09:28:41;;;;;;;11.27;5.80;;;;;;;;;;5009845;28;20037;-75
2021/07/20 09:31:19;;;;;;;13.27;6.10;;;;;;;;;;5020808;28;20037;-73
2021/07/20 09:34:10;;;;;;;11.93;7.20;;;;;;;;;;5026336;28;20539;-74
2021/07/20 09:36:49;;;;;;;13.30;5.88;;;;;;;;;;5023048;28;20021;-74
2021/07/20 09:39:40;;;;;;;9.40;5.88;;;;;;;;;;5013939;28;20030;-74
2021/07/20 09:42:15;;;;;;;8.90;6.32;;;;;;;;;;5017888;28;20018;-74
2021/07/20 09:44:59;;;;;;;16.48;8.20;;;;;;;;;;5022588;28;20315;-74
2021/07/20 09:47:35;;;;;;;13.70;7.05;;;;;;;;;;5018338;28;20029;-74
2021/07/20 09:50:20;;;;;;;12.30;6.68;;;;;;;;;;5018498;28;20029;-73
2021/07/20 09:53:17;;;;;;;11.90;6.65;;;;;;;;;;5023608;28;20030;-73
2021/07/20 09:55:52;;;;;;;19.33;6.65;;;;;;;;;;5021363;28;20061;-73
2021/07/20 09:58:39;;;;;;;13.63;6.40;;;;;;;;;;5018951;28;20065;-74
2021/07/20 10:01:20;;;;;;;13.40;8.07;;;;;;;;;;5019866;28;20052;-73
2021/07/20 10:03:59;;;;;;;;;;;;;;;;;;5017964;28;20095;-74
2021/07/20 10:06:47;;;;;;;11.90;5.90;;;;;;;;;;5020968;28;20028;-74
2021/07/20 10:09:20;;;;;;;13.73;6.32;;;;;;;;;;5021186;28;20484;-72
2021/07/20 10:12:20;;;;;;;10.82;4.85;;;;;;;;;;5022538;28;20431;-74
2021/07/20 10:15:05;;;;;;;8.07;5.03;;;;;;;;;;5034754;28;20025;-74
2021/07/20 10:17:37;;;;;;;17.70;9.25;;;;;;;;;;5021089;28;20056;-74
2021/07/20 10:20:25;;;;;;;14.98;5.50;;;;;;;;;;5013306;28;20314;-74
2021/07/20 10:23:24;;;;;;;9.18;5.25;;;;;;;;;;5020377;28;20025;-76
2021/07/20 10:26:27;;;;;;;15.05;4.93;;;;;;;;;;5017442;28;20030;-73
2021/07/20 10:29:17;;;;;;;9.50;5.78;;;;;;;;;;5009316;28;20030;-75
2021/07/20 10:32:06;;;;;;;13.95;5.80;;;;;;;;;;5019620;28;20041;-74
2021/07/20 10:34:37;;;;;;;12.88;6.15;;;;;;;;;;5020912;28;20036;-74
2021/07/20 10:37:20;;;;;;;10.63;5.43;;;;;;;;;;5012967;28;20103;-73
2021/07/20 10:40:14;;;;;;;16.48;6.18;;;;;;;;;;5016700;28;20029;-75
2021/07/20 10:42:56;;;;;;;9.30;4.95;;;;;;;;;;5022724;28;20034;-76
2021/07/20 10:45:24;;;;;;;13.60;5.88;;;;;;;;;;5025628;28;20021;-74
2021/07/20 10:48:08;;;;;;;13.40;5.38;;;;;;;;;;5021966;28;20029;-73
2021/07/20 10:50:42;;;;;;;11.30;6.38;;;;;;;;;;5022218;28;20144;-73
2021/07/20 10:53:32;;;;;;;10.25;5.55;;;;;;;;;;5021470;28;20035;-73
2021/07/20 10:56:04;;;;;;;12.13;5.75;;;;;;;;;;5015477;28;20553;-73
2021/07/20 10:58:39;;;;;;;11.73;5.57;;;;;;;;;;5016643;28;20032;-73
2021/07/20 11:01:13;;;;;;;7.95;5.22;;;;;;;;;;5023512;28;20021;-74
2021/07/20 11:04:03;;;;;;;9.95;5.13;;;;;;;;;;5017066;28;20030;-74
2021/07/20 11:06:30;;;;;;;14.95;4.97;;;;;;;;;;5021648;28;20524;-73
2021/07/20 11:09:00;;;;;;;10.45;5.40;;;;;;;;;;5020408;28;20068;-74
2021/07/20 11:11:32;;;;;;;9.05;5.25;;;;;;;;;;5018679;28;20282;-74
2021/07/20 11:14:02;;;;;;;33.22;6.30;;;;;;;;;;5016407;28;20535;-74
2021/07/20 11:16:30;;;;;;;24.75;13.98;;;;;;;;;;5020455;28;20129;-74
2021/07/20 11:18:57;;;;;;;8.95;5.35;;;;;;;;;;5016162;28;20029;-74
2021/07/20 11:21:26;;;;;;;9.63;5.75;;;;;;;;;;5017674;28;20485;-74
2021/07/20 11:23:53;;;;;;;10.27;5.45;;;;;;;;;;5015201;28;20108;-75
2021/07/20 11:26:20;;;;;;;14.50;7.90;;;;;;;;;;5017911;28;20120;-74
2021/07/20 11:28:46;;;;;;;7.78;4.85;;;;;;;;;;5020883;28;20232;-74
2021/07/20 11:31:40;;;;;;;10.63;5.07;;;;;;;;;;5017545;28;20021;-74
2021/07/20 11:34:11;;;;;;;14.23;5.40;;;;;;;;;;5021025;28;20511;-75
2021/07/20 11:36:40;;;;;;;11.65;5.78;;;;;;;;;;5019497;28;20092;-73
2021/07/20 11:39:11;;;;;;;8.50;4.22;;;;;;;;;;5023694;28;20272;-73
2021/07/20 11:42:02;;;;;;;10.45;5.63;;;;;;;;;;5027094;28;20048;-74
2021/07/20 11:44:58;;;;;;;10.30;5.95;;;;;;;;;;5020695;28;20043;-73
2021/07/20 11:47:32;;;;;;;9.32;4.72;;;;;;;;;;5015298;28;20076;-73
2021/07/20 11:50:31;;;;;;;9.10;4.95;;;;;;;;;;5035127;28;20889;-73
2021/07/20 11:53:15;;;;;;;8.82;5.20;;;;;;;;;;5021641;28;20103;-73
2021/07/20 11:55:56;;;;;;;8.77;4.55;;;;;;;;;;5021413;28;20520;-72
2021/07/20 11:58:36;;;;;;;16.23;5.60;;;;;;;;;;5024900;28;20491;-74
2021/07/20 12:01:39;;;;;;;11.10;5.22;;;;;;;;;;5023826;28;20025;-73
2021/07/20 12:04:44;;;;;;;8.77;5.00;;;;;;;;;;5021435;28;20060;-74
2021/07/20 12:07:38;;;;;;;12.77;5.60;;;;;;;;;;5025426;28;20057;-73
2021/07/20 12:10:16;;;;;;;7.78;4.72;;;;;;;;;;5023337;28;20041;-73
2021/07/20 12:12:45;;;;;;;11.60;5.38;;;;;;;;;;5022169;28;20048;-74
2021/07/20 12:15:16;;;;;;;10.73;5.03;;;;;;;;;;5022134;28;20029;-73
2021/07/20 12:17:43;;;;;;;10.68;5.53;;;;;;;;;;5024190;28;20040;-74
2021/07/20 12:20:11;;;;;;;9.68;4.90;;;;;;;;;;5016001;28;20038;-73
2021/07/20 12:22:38;;;;;;;12.02;5.38;;;;;;;;;;5023491;28;20026;-73
2021/07/20 12:25:12;;;;;;;8.07;5.13;;;;;;;;;;5022900;28;20025;-73
2021/07/20 12:27:40;;;;;;;7.53;5.07;;;;;;;;;;5025739;28;20037;-74
2021/07/20 12:30:08;;;;;;;9.57;4.88;;;;;;;;;;5021523;28;20087;-73
2021/07/20 12:32:36;;;;;;;13.05;5.20;;;;;;;;;;5022231;28;20018;-74
2021/07/20 12:35:03;;;;;;;7.30;5.05;;;;;;;;;;5023183;28;20029;-74
2021/07/20 12:37:28;;;;;;;11.30;5.55;;;;;;;;;;5026012;28;20029;-73
2021/07/20 12:39:58;;;;;;;12.57;6.65;;;;;;;;;;5026537;28;20422;-73
2021/07/20 12:42:32;;;;;;;10.27;4.93;;;;;;;;;;5025980;28;20430;-74
2021/07/20 12:45:09;;;;;;;9.85;5.78;;;;;;;;;;5019784;28;20310;-74
2021/07/20 12:47:42;;;;;;;7.82;5.47;;;;;;;;;;5022813;28;20025;-76
2021/07/20 12:50:10;;;;;;;10.38;5.40;;;;;;;;;;5018674;28;20037;-74
2021/07/20 12:52:43;;;;;;;10.38;6.15;;;;;;;;;;5023454;28;20381;-74
2021/07/20 12:55:19;;;;;;;9.77;6.30;;;;;;;;;;5015666;28;20045;-73
2021/07/20 12:57:55;;;;;;;12.45;5.75;;;;;;;;;;5019446;28;20064;-74
2021/07/20 13:00:27;;;;;;;11.13;6.40;;;;;;;;;;5021103;28;20183;-74
2021/07/20 13:02:55;;;;;;;10.02;6.38;;;;;;;;;;5022157;28;20503;-74
2021/07/20 13:05:25;;;;;;;15.48;6.57;;;;;;;;;;5021691;28;20095;-74
2021/07/20 13:07:52;;;;;;;13.35;6.65;;;;;;;;;;5014974;28;20044;-75
2021/07/20 13:10:18;;;;;;;12.30;6.63;;;;;;;;;;5012485;28;20532;-75
2021/07/20 13:12:46;;;;;;;11.05;6.57;;;;;;;;;;5023857;28;20041;-75
2021/07/20 13:15:19;;;;;;;17.20;8.95;;;;;;;;;;5019208;28;20025;-74
2021/07/20 13:17:51;;;;;;;12.95;6.85;;;;;;;;;;5016244;28;20044;-75
2021/07/20 13:20:35;;;;;;;11.98;6.75;;;;;;;;;;5023126;28;20068;-74
2021/07/20 13:23:00;;;;;;;11.57;7.20;;;;;;;;;;5016570;28;20029;-73
2021/07/20 13:25:27;;;;;;;8.45;6.22;;;;;;;;;;5020872;28;20397;-75
2021/07/20 13:27:55;;;;;;;11.27;6.13;;;;;;;;;;5012427;28;20033;-75
2021/07/20 13:30:26;;;;;;;9.30;6.30;;;;;;;;;;5013224;28;20481;-74
2021/07/20 13:32:52;;;;;;;11.15;6.57;;;;;;;;;;5018268;28;20127;-73
2021/07/20 13:35:19;;;;;;;11.05;6.10;;;;;;;;;;5021153;28;20108;-74
2021/07/20 13:37:46;;;;;;;11.07;6.47;;;;;;;;;;5025020;28;20037;-75
2021/07/20 13:40:16;;;;;;;11.30;6.22;;;;;;;;;;5021844;28;20334;-75
2021/07/20 13:42:43;;;;;;;12.77;6.35;;;;;;;;;;5021573;28;20448;-73
2021/07/20 13:45:10;;;;;;;11.93;6.63;;;;;;;;;;5020301;28;20471;-74
2021/07/20 13:47:59;;;;;;;15.93;8.23;;;;;;;;;;5013310;28;20061;-73
2021/07/20 13:50:29;;;;;;;7.32;5.70;;;;;;;;;;5013756;28;20052;-74
2021/07/20 13:52:57;;;;;;;10.57;6.05;;;;;;;;;;5020515;28;20052;-74
2021/07/20 13:55:28;;;;;;;18.33;6.90;;;;;;;;;;5012156;28;20140;-74
2021/07/20 13:57:55;;;;;;;11.13;6.47;;;;;;;;;;5028729;28;20706;-74
2021/07/20 14:00:22;;;;;;;11.75;6.10;;;;;;;;;;5013550;28;20149;-74
2021/07/20 14:02:49;;;;;;;12.35;6.78;;;;;;;;;;5012850;28;20115;-75
2021/07/20 14:05:20;;;;;;;10.63;6.55;;;;;;;;;;5013780;28;20439;-76
2021/07/20 14:07:49;;;;;;;10.77;6.28;;;;;;;;;;5029676;28;20033;-75
2021/07/20 14:10:16;;;;;;;11.25;5.55;;;;;;;;;;5008746;28;20038;-75
2021/07/20 14:12:42;;;;;;;11.95;8.52;;;;;;;;;;5016919;28;20514;-73
2021/07/20 14:15:10;;;;;;;12.48;7.68;;;;;;;;;;5012816;28;20037;-74
2021/07/20 14:17:38;;;;;;;11.25;5.93;;;;;;;;;;5011865;28;20470;-74
2021/07/20 14:20:07;;;;;;;13.07;6.63;;;;;;;;;;5020407;28;20033;-74
2021/07/20 14:22:34;;;;;;;12.13;6.80;;;;;;;;;;5019954;28;20037;-75
2021/07/20 14:25:00;;;;;;;13.95;6.53;;;;;;;;;;5011741;28;20120;-74
2021/07/20 14:27:28;;;;;;;16.00;6.97;;;;;;;;;;5018232;28;20121;-75
2021/07/20 14:29:56;;;;;;;14.25;7.25;;;;;;;;;;5014918;28;20060;-74
2021/07/20 14:32:30;;;;;;;12.80;6.25;;;;;;;;;;5022813;28;20140;-74
2021/07/20 14:34:58;;;;;;;13.98;6.95;;;;;;;;;;5020883;28;20537;-74
2021/07/20 14:37:33;;;;;;;13.88;6.85;;;;;;;;;;5021051;28;20034;-75
2021/07/20 14:40:21;;;;;;;14.80;7.82;;;;;;;;;;5014564;28;20033;-74
2021/07/20 14:42:48;;;;;;;13.65;6.70;;;;;;;;;;5021174;28;20029;-76
2021/07/20 14:45:15;;;;;;;10.82;6.55;;;;;;;;;;5024787;28;20037;-74
2021/07/20 14:47:41;;;;;;;10.95;6.95;;;;;;;;;;5022284;28;20112;-75
2021/07/20 14:50:06;;;;;;;11.65;6.82;;;;;;;;;;5022968;28;20450;-75
2021/07/20 14:52:44;;;;;;;14.73;7.40;;;;;;;;;;5022024;28;20477;-75
2021/07/20 14:55:22;;;;;;;11.82;6.70;;;;;;;;;;5014704;28;20056;-75
2021/07/20 14:57:49;;;;;;;15.75;7.20;;;;;;;;;;5016195;28;20412;-75